Time;durP1;ratioP1;P1;durP2;ratioP2;P2;SDS_P1;SDS_P2;PMS_P1;PMS_P2;Temp;Humidity;BMP_temperature;BMP_pressure;BME280_temperature;BME280_humidity;BME280_pressure;Samples;Min_cycle;Max_cycle;Signal;HPM_P1;HPM_P2
2021/06/21 00:00:21;;;;;;;4.10;2.55;;;20.90;79.30;;;;;;5032456;28;20084;-81
2021/06/21 00:02:47;;;;;;;4.18;1.92;;;20.90;79.60;;;;;;5032385;28;20025;-81
2021/06/21 00:05:15;;;;;;;4.22;2.60;;;20.80;79.50;;;;;;5033695;28;20021;-81
2021/06/21 00:07:41;;;;;;;5.47;2.65;;;20.70;79.80;;;;;;5031997;28;20021;-81
2021/06/21 00:10:08;;;;;;;4.63;2.58;;;20.70;80.10;;;;;;5032254;28;20469;-81
2021/06/21 00:12:34;;;;;;;5.30;2.50;;;20.60;80.20;;;;;;5032154;28;20064;-80
2021/06/21 00:15:01;;;;;;;4.20;2.63;;;20.50;80.50;;;;;;5032446;28;20022;-81
2021/06/21 00:17:26;;;;;;;3.53;2.30;;;20.50;80.60;;;;;;5031897;28;20033;-82
2021/06/21 00:19:52;;;;;;;4.35;2.55;;;20.50;80.80;;;;;;5034264;28;20021;-80
2021/06/21 00:22:19;;;;;;;5.15;2.90;;;20.50;80.70;;;;;;5031954;28;20065;-81
2021/06/21 00:24:45;;;;;;;6.72;2.70;;;20.50;80.60;;;;;;5033209;28;20542;-81
2021/06/21 00:27:12;;;;;;;5.35;2.35;;;20.50;80.50;;;;;;5032339;28;20025;-82
2021/06/21 00:29:38;;;;;;;4.47;2.70;;;20.50;80.50;;;;;;5031823;28;20018;-80
2021/06/21 00:32:04;;;;;;;4.80;2.58;;;20.50;80.50;;;;;;5033281;28;20441;-80
2021/06/21 00:34:30;;;;;;;5.93;2.55;;;20.50;80.60;;;;;;5031745;28;20485;-80
2021/06/21 00:36:56;;;;;;;5.13;2.97;;;20.40;80.40;;;;;;5031719;28;20026;-80
2021/06/21 00:39:22;;;;;;;7.40;3.78;;;20.40;80.40;;;;;;5033466;28;20029;-87
2021/06/21 00:41:48;;;;;;;5.60;3.30;;;20.40;80.50;;;;;;5032087;28;20426;-80
2021/06/21 00:44:14;;;;;;;6.30;3.40;;;20.30;80.60;;;;;;5032095;28;20137;-81
2021/06/21 00:46:39;;;;;;;7.70;3.38;;;20.20;80.60;;;;;;5031732;28;20101;-80
2021/06/21 00:49:05;;;;;;;5.93;3.20;;;20.20;80.60;;;;;;5032401;28;20052;-81
2021/06/21 00:51:31;;;;;;;5.05;2.90;;;20.20;80.60;;;;;;5031551;28;20025;-80
2021/06/21 00:53:57;;;;;;;7.75;2.75;;;20.10;80.70;;;;;;5033184;28;20046;-81
2021/06/21 00:56:23;;;;;;;5.30;3.17;;;20.10;80.80;;;;;;5031525;28;20163;-86
2021/06/21 00:58:52;;;;;;;6.72;3.33;;;20.00;81.00;;;;;;5033179;28;20021;-80
2021/06/21 01:01:18;;;;;;;7.10;3.40;;;20.00;81.40;;;;;;5033137;28;20025;-80
2021/06/21 01:03:44;;;;;;;4.65;2.38;;;19.80;81.60;;;;;;5032557;28;20118;-80
2021/06/21 01:06:11;;;;;;;5.68;3.17;;;19.70;81.80;;;;;;5031823;28;20088;-80
2021/06/21 01:08:37;;;;;;;6.68;2.53;;;19.60;82.20;;;;;;5032382;28;20025;-81
2021/06/21 01:11:03;;;;;;;9.80;3.10;;;19.50;82.10;;;;;;5031457;28;20436;-81
2021/06/21 01:13:50;;;;;;;5.38;3.35;;;19.50;82.50;;;;;;5030839;28;20116;-81
2021/06/21 01:16:27;;;;;;;4.45;2.88;;;19.40;82.70;;;;;;5032121;28;20026;-80
2021/06/21 01:18:55;;;;;;;9.23;3.53;;;19.40;82.70;;;;;;5031404;28;20021;-79
2021/06/21 01:22:07;;;;;;;6.95;3.55;;;19.30;83.00;;;;;;5031270;28;20083;-80
2021/06/21 01:25:02;;;;;;;5.15;3.00;;;19.30;83.20;;;;;;5031843;28;20021;-81
2021/06/21 01:27:40;;;;;;;8.05;3.47;;;19.20;83.50;;;;;;5030488;28;20108;-81
2021/06/21 01:30:06;;;;;;;4.70;2.53;;;19.10;83.80;;;;;;5031164;28;20033;-80
2021/06/21 01:32:51;;;;;;;6.13;3.47;;;19.10;83.50;;;;;;5030661;28;20033;-81
2021/06/21 01:35:23;;;;;;;6.85;3.47;;;19.10;83.70;;;;;;5031130;28;20378;-80
2021/06/21 01:37:54;;;;;;;8.10;3.53;;;19.20;83.60;;;;;;5032626;28;20035;-80
2021/06/21 01:40:21;;;;;;;5.65;3.50;;;19.10;83.50;;;;;;5033089;28;20044;-80
2021/06/21 01:42:51;;;;;;;7.70;3.30;;;19.10;83.70;;;;;;5032298;28;20033;-80
2021/06/21 01:45:18;;;;;;;5.17;2.67;;;19.00;84.00;;;;;;5033014;28;20473;-80
2021/06/21 01:47:48;;;;;;;5.82;3.45;;;18.90;84.10;;;;;;5031637;28;20276;-80
2021/06/21 01:50:21;;;;;;;6.70;3.15;;;18.80;84.50;;;;;;5032952;28;20028;-79
2021/06/21 01:53:09;;;;;;;5.53;3.22;;;18.80;84.70;;;;;;5030461;28;20060;-80
2021/06/21 01:55:39;;;;;;;5.03;2.42;;;18.80;84.60;;;;;;5029319;28;20481;-80
2021/06/21 01:58:07;;;;;;;4.43;2.78;;;18.80;84.70;;;;;;5032143;28;20021;-80
2021/06/21 02:00:33;;;;;;;4.97;2.63;;;18.70;84.90;;;;;;5031457;28;20040;-81
2021/06/21 02:03:00;;;;;;;5.63;2.90;;;18.70;85.10;;;;;;5030723;28;20030;-81
2021/06/21 02:05:28;;;;;;;4.53;2.55;;;18.70;85.20;;;;;;5032012;28;20105;-81
2021/06/21 02:07:55;;;;;;;4.38;2.70;;;18.70;85.30;;;;;;5031020;28;20044;-81
2021/06/21 02:10:21;;;;;;;4.40;2.05;;;18.70;85.30;;;;;;5030608;28;20021;-81
2021/06/21 02:12:49;;;;;;;4.30;2.60;;;18.60;85.30;;;;;;5031513;28;20493;-80
2021/06/21 02:15:16;;;;;;;6.18;2.78;;;18.60;85.50;;;;;;5031880;28;20120;-81
2021/06/21 02:17:42;;;;;;;4.80;2.63;;;18.60;85.60;;;;;;5031552;28;20030;-80
2021/06/21 02:20:10;;;;;;;3.13;1.83;;;18.60;85.90;;;;;;5032095;28;20025;-81
2021/06/21 02:22:36;;;;;;;4.47;2.53;;;18.50;85.80;;;;;;5031832;28;20460;-81
2021/06/21 02:25:05;;;;;;;4.50;2.42;;;18.40;85.80;;;;;;5032048;28;20025;-82
2021/06/21 02:27:32;;;;;;;4.63;1.92;;;18.30;86.80;;;;;;5032064;28;20075;-82
2021/06/21 02:29:59;;;;;;;2.80;1.88;;;18.30;86.40;;;;;;5034223;28;20151;-82
2021/06/21 02:32:25;;;;;;;3.75;2.10;;;18.10;86.80;;;;;;5035344;28;20469;-82
2021/06/21 02:34:52;;;;;;;6.10;2.05;;;18.10;86.90;;;;;;5033679;28;20072;-81
2021/06/21 02:37:18;;;;;;;4.15;1.95;;;18.00;86.90;;;;;;5034299;28;20079;-81
2021/06/21 02:39:44;;;;;;;3.08;1.67;;;18.00;87.20;;;;;;5033680;28;20036;-82
2021/06/21 02:42:11;;;;;;;5.00;2.03;;;17.90;87.30;;;;;;5034250;28;20112;-82
2021/06/21 02:44:36;;;;;;;1.63;1.33;;;17.80;87.50;;;;;;5033587;28;20426;-83
2021/06/21 02:47:04;;;;;;;5.20;1.95;;;17.80;87.50;;;;;;5034052;28;20065;-83
2021/06/21 02:49:30;;;;;;;1.77;1.10;;;17.80;87.70;;;;;;5035251;28;20028;-82
2021/06/21 02:52:24;;;;;;;3.78;2.00;;;17.70;87.70;;;;;;5033363;28;20032;-82
2021/06/21 02:55:06;;;;;;;3.45;1.55;;;17.60;88.00;;;;;;5034423;28;20435;-82
2021/06/21 02:57:52;;;;;;;4.28;1.63;;;17.70;88.20;;;;;;5045333;28;20027;-86
2021/06/21 03:00:19;;;;;;;3.28;1.80;;;17.60;88.00;;;;;;5055154;28;20027;-83
2021/06/21 03:02:46;;;;;;;2.58;1.60;;;17.60;88.20;;;;;;5053401;28;20097;-82
2021/06/21 03:05:13;;;;;;;2.53;1.52;;;17.60;88.30;;;;;;5036516;28;20485;-82
2021/06/21 03:07:41;;;;;;;3.35;1.67;;;17.50;88.30;;;;;;5033152;28;20048;-83
2021/06/21 03:10:08;;;;;;;3.05;1.55;;;17.40;88.30;;;;;;5034787;28;20052;-84
2021/06/21 03:12:35;;;;;;;2.50;1.35;;;17.40;88.30;;;;;;5033160;28;20028;-83
2021/06/21 03:15:01;;;;;;;2.30;1.70;;;17.30;88.30;;;;;;5034570;28;20021;-83
2021/06/21 03:17:28;;;;;;;2.78;1.42;;;17.20;88.70;;;;;;5034795;28;20017;-83
2021/06/21 03:19:54;;;;;;;2.55;1.38;;;17.10;88.90;;;;;;5032937;28;20033;-84
2021/06/21 03:22:26;;;;;;;2.30;1.40;;;17.10;89.60;;;;;;5034649;28;20363;-82
2021/06/21 03:24:54;;;;;;;2.35;1.40;;;17.00;88.90;;;;;;5033027;28;20028;-84
2021/06/21 03:27:30;;;;;;;3.00;1.52;;;17.00;89.10;;;;;;5035007;28;20104;-83
2021/06/21 03:29:57;;;;;;;4.13;1.55;;;17.00;89.20;;;;;;5032876;28;20022;-82
2021/06/21 03:32:33;;;;;;;4.30;1.60;;;17.00;89.10;;;;;;5040804;28;20094;-83
2021/06/21 03:35:01;;;;;;;6.05;1.50;;;17.00;89.30;;;;;;5052493;28;20031;-84
2021/06/21 03:37:27;;;;;;;2.53;1.60;;;16.90;89.30;;;;;;5052748;28;20458;-85
2021/06/21 03:39:54;;;;;;;2.70;1.40;;;16.90;89.50;;;;;;5051242;28;20021;-83
2021/06/21 03:42:20;;;;;;;3.30;1.30;;;16.90;89.40;;;;;;5052544;28;20477;-83
2021/06/21 03:44:47;;;;;;;2.50;1.38;;;17.00;89.50;;;;;;5052047;28;20018;-83
2021/06/21 03:47:13;;;;;;;2.55;1.52;;;17.00;89.30;;;;;;5044012;28;20071;-84
2021/06/21 03:49:42;;;;;;;1.77;1.10;;;17.00;89.30;;;;;;5032420;28;20485;-84
2021/06/21 03:52:08;;;;;;;2.45;1.33;;;17.10;89.50;;;;;;5032910;28;20022;-82
2021/06/21 03:54:35;;;;;;;3.50;1.38;;;17.10;89.50;;;;;;5032520;28;20144;-83
2021/06/21 03:57:02;;;;;;;3.53;1.30;;;17.00;89.60;;;;;;5032704;28;20051;-84
2021/06/21 03:59:27;;;;;;;2.05;1.17;;;17.00;89.60;;;;;;5016463;28;20072;-83
2021/06/21 04:01:59;;;;;;;2.75;1.40;;;17.00;90.00;;;;;;5032460;28;20033;-84
2021/06/21 04:04:25;;;;;;;3.00;1.30;;;17.00;90.00;;;;;;5032927;28;20021;-85
2021/06/21 04:06:52;;;;;;;2.17;1.20;;;16.90;90.00;;;;;;5032184;28;20462;-89
2021/06/21 04:09:19;;;;;;;2.22;1.27;;;16.90;90.20;;;;;;5033862;28;20057;-85
2021/06/21 04:11:45;;;;;;;3.83;1.48;;;16.90;90.00;;;;;;5033642;28;20432;-85
2021/06/21 04:14:15;;;;;;;2.80;1.05;;;16.90;90.00;;;;;;5032976;28;20025;-85
2021/06/21 04:16:41;;;;;;;2.00;1.10;;;16.90;90.10;;;;;;5033245;28;20025;-85
2021/06/21 04:19:07;;;;;;;1.58;0.95;;;16.80;90.10;;;;;;5034413;28;20075;-84
2021/06/21 04:21:33;;;;;;;1.85;0.95;;;16.80;90.00;;;;;;5032541;28;20036;-83
2021/06/21 04:24:00;;;;;;;1.98;0.88;;;16.80;90.10;;;;;;5015861;28;20470;-85
2021/06/21 04:26:25;;;;;;;1.55;1.02;;;16.70;90.20;;;;;;5052345;28;20035;-84
2021/06/21 04:28:51;;;;;;;1.70;0.88;;;16.70;90.20;;;;;;5051467;28;20024;-84
2021/06/21 04:31:18;;;;;;;2.38;0.90;;;16.60;90.30;;;;;;5048871;28;20104;-85
2021/06/21 04:33:44;;;;;;;0.63;0.57;;;16.60;90.30;;;;;;5051448;28;20043;-85
2021/06/21 04:36:11;;;;;;;1.58;0.90;;;16.60;90.40;;;;;;5053425;28;20017;-84
2021/06/21 04:38:37;;;;;;;2.28;0.90;;;16.60;90.40;;;;;;5047330;28;20029;-85
2021/06/21 04:41:03;;;;;;;1.58;0.95;;;16.50;90.50;;;;;;5033613;28;20021;-85
2021/06/21 04:43:32;;;;;;;2.45;1.00;;;16.50;90.50;;;;;;5032115;28;20061;-86
2021/06/21 04:45:58;;;;;;;1.30;0.80;;;16.60;90.60;;;;;;5031998;28;20025;-85
2021/06/21 04:48:23;;;;;;;1.65;1.00;;;16.50;90.50;;;;;;5032740;28;20461;-86
2021/06/21 04:50:49;;;;;;;1.83;0.80;;;16.50;90.50;;;;;;5032463;28;20026;-86
2021/06/21 04:53:16;;;;;;;1.75;0.95;;;16.50;90.60;;;;;;5032053;28;20439;-84
2021/06/21 04:55:43;;;;;;;1.77;0.93;;;16.50;90.60;;;;;;5031194;28;20148;-88
2021/06/21 04:58:08;;;;;;;2.53;1.15;;;16.60;90.70;;;;;;5032125;28;20079;-85
2021/06/21 05:00:34;;;;;;;1.90;0.82;;;16.60;90.70;;;;;;5032140;28;20397;-85
2021/06/21 05:03:00;;;;;;;1.75;0.85;;;16.60;90.70;;;;;;5031879;28;20034;-86
2021/06/21 05:05:25;;;;;;;2.10;1.00;;;16.50;90.60;;;;;;5033659;28;20025;-85
2021/06/21 05:07:53;;;;;;;1.75;1.05;;;16.50;90.80;;;;;;5033801;28;20022;-85
2021/06/21 05:10:21;;;;;;;1.67;0.70;;;16.40;90.90;;;;;;5034794;28;20028;-85
2021/06/21 05:12:47;;;;;;;1.35;0.90;;;16.40;91.00;;;;;;5034915;28;20064;-85
2021/06/21 05:15:14;;;;;;;0.85;0.80;;;16.40;91.00;;;;;;5037609;28;20018;-85
2021/06/21 05:17:40;;;;;;;1.00;0.75;;;16.40;91.00;;;;;;5035170;28;20588;-85
2021/06/21 05:20:25;;;;;;;1.15;0.90;;;16.50;91.00;;;;;;5034549;28;20021;-87
2021/06/21 05:22:52;;;;;;;0.80;0.60;;;16.50;90.90;;;;;;5041555;28;20436;-85
2021/06/21 05:25:19;;;;;;;0.70;0.70;;;16.60;90.90;;;;;;5034169;28;20032;-85
2021/06/21 05:27:47;;;;;;;1.48;0.80;;;16.50;90.70;;;;;;5037566;28;20025;-91
2021/06/21 05:30:14;;;;;;;1.38;1.00;;;16.50;90.80;;;;;;5037221;28;20025;-85
2021/06/21 05:32:42;;;;;;;1.13;0.70;;;16.50;90.80;;;;;;5035417;28;20022;-86
2021/06/21 05:35:11;;;;;;;1.38;0.80;;;16.50;90.90;;;;;;5032581;28;20021;-87
2021/06/21 05:37:40;;;;;;;0.88;0.60;;;16.50;90.90;;;;;;5034358;28;20029;-86
2021/06/21 05:40:08;;;;;;;2.13;0.93;;;16.50;91.00;;;;;;5032210;28;20041;-86
2021/06/21 05:42:34;;;;;;;1.20;0.90;;;16.50;91.00;;;;;;5032383;28;20124;-86
2021/06/21 05:45:00;;;;;;;1.20;0.70;;;16.50;90.90;;;;;;5031840;28;20022;-84
2021/06/21 05:47:28;;;;;;;1.33;0.57;;;16.50;90.90;;;;;;5033698;28;20071;-86
2021/06/21 05:49:57;;;;;;;0.70;0.50;;;16.50;90.90;;;;;;5015524;28;20038;-88
2021/06/21 05:52:33;;;;;;;;;;;;;;;;;;;;;
2021/06/21 05:55:01;;;;;;;1.10;0.68;;;16.40;91.00;;;;;;5034394;28;20042;-87
2021/06/21 05:57:34;;;;;;;2.42;0.70;;;16.40;91.00;;;;;;5036222;28;20064;-88
2021/06/21 06:00:11;;;;;;;1.10;0.50;;;16.30;91.10;;;;;;5034795;28;20028;-87
2021/06/21 06:02:36;;;;;;;1.48;0.60;;;16.40;91.30;;;;;;5039173;28;20496;-87
2021/06/21 06:05:07;;;;;;;1.20;0.60;;;16.40;91.20;;;;;;5037547;28;20116;-87
2021/06/21 06:07:46;;;;;;;0.85;0.68;;;16.30;91.20;;;;;;5038304;28;20064;-87
2021/06/21 06:10:53;;;;;;;0.50;0.50;;;16.40;91.50;;;;;;5037352;28;20036;-88
2021/06/21 06:13:25;;;;;;;0.60;0.60;;;16.40;91.20;;;;;;5037685;28;20069;-88
2021/06/21 06:15:51;;;;;;;1.33;0.70;;;16.40;91.20;;;;;;5038498;28;20026;-90
2021/06/21 06:18:17;;;;;;;1.23;0.80;;;16.40;91.20;;;;;;5037977;28;20023;-89
2021/06/21 06:20:45;;;;;;;0.90;0.70;;;16.30;91.10;;;;;;5041547;28;20022;-89
2021/06/21 06:23:12;;;;;;;1.20;0.70;;;16.30;91.20;;;;;;5038182;28;20029;-89
2021/06/21 06:25:37;;;;;;;0.73;0.73;;;16.30;91.20;;;;;;5037771;28;20013;-90
2021/06/21 06:28:05;;;;;;;0.65;0.50;;;16.30;91.30;;;;;;5037525;28;20026;-91
2021/06/21 06:30:35;;;;;;;1.27;0.80;;;16.20;91.30;;;;;;5038303;28;20025;-90
2021/06/21 06:33:03;;;;;;;1.40;0.90;;;16.10;91.40;;;;;;5037422;28;20041;-90
2021/06/21 06:35:29;;;;;;;1.13;0.75;;;16.10;91.50;;;;;;5038520;28;20114;-91
2021/06/21 06:37:55;;;;;;;0.60;0.57;;;16.00;91.60;;;;;;5038275;28;20444;-91
2021/06/21 06:40:26;;;;;;;1.85;0.75;;;16.10;91.60;;;;;;5037729;28;20028;-91
2021/06/21 06:42:54;;;;;;;0.77;0.50;;;16.10;91.60;;;;;;5037034;28;20030;-91
2021/06/21 06:45:21;;;;;;;0.80;0.60;;;16.20;91.50;;;;;;5037980;28;20024;-89
2021/06/21 06:47:48;;;;;;;1.17;0.57;;;16.20;91.60;;;;;;5037533;28;20048;-91
2021/06/21 06:50:14;;;;;;;0.40;0.40;;;16.20;91.60;;;;;;5036805;28;20057;-89
2021/06/21 06:52:41;;;;;;;0.73;0.50;;;16.20;91.60;;;;;;5036408;28;20025;-90
2021/06/21 06:57:52;;;;;;;0.80;0.57;;;16.30;91.50;;;;;;5037687;28;20041;-89
2021/06/21 07:00:20;;;;;;;0.80;0.65;;;16.30;91.50;;;;;;5038568;28;20029;-90
2021/06/21 07:02:48;;;;;;;0.82;0.60;;;16.30;91.50;;;;;;5038558;28;20033;-90
2021/06/21 07:05:17;;;;;;;1.50;0.80;;;16.20;91.60;;;;;;5038826;28;20112;-90
2021/06/21 07:07:43;;;;;;;0.95;0.60;;;16.30;91.50;;;;;;5037182;28;20378;-91
2021/06/21 07:10:09;;;;;;;0.77;0.60;;;16.30;91.50;;;;;;5036822;28;20024;-91
2021/06/21 07:12:37;;;;;;;1.20;0.65;;;16.20;91.60;;;;;;5051625;28;20034;-90
2021/06/21 07:15:04;;;;;;;0.60;0.50;;;16.20;91.60;;;;;;5037472;28;20064;-90
2021/06/21 07:17:32;;;;;;;2.08;0.80;;;16.20;91.60;;;;;;5049572;28;20024;-89
2021/06/21 07:19:57;;;;;;;0.60;0.60;;;16.20;91.70;;;;;;5039345;28;20033;-91
2021/06/21 07:22:23;;;;;;;0.55;0.55;;;16.20;91.60;;;;;;5037037;28;20030;-89
2021/06/21 07:24:51;;;;;;;0.90;0.70;;;16.30;91.70;;;;;;5037442;28;20026;-90
2021/06/21 07:27:17;;;;;;;1.10;0.60;;;16.30;91.60;;;;;;5037841;28;20460;-92
2021/06/21 07:29:43;;;;;;;0.60;0.60;;;16.20;91.70;;;;;;5037863;28;20026;-91
2021/06/21 07:32:12;;;;;;;0.60;0.57;;;16.30;91.70;;;;;;5036978;28;20053;-90
2021/06/21 07:34:38;;;;;;;0.60;0.60;;;16.30;91.60;;;;;;5037982;28;20022;-90
2021/06/21 07:37:04;;;;;;;1.80;0.70;;;16.30;91.60;;;;;;5036121;28;20053;-91
2021/06/21 07:39:30;;;;;;;0.40;0.40;;;16.40;91.60;;;;;;5036413;28;20061;-88
2021/06/21 07:41:56;;;;;;;0.60;0.60;;;16.40;91.50;;;;;;5035784;28;20044;-91
2021/06/21 07:44:23;;;;;;;1.10;0.73;;;16.40;91.50;;;;;;5037821;28;20029;-90
2021/06/21 07:46:49;;;;;;;0.60;0.50;;;16.40;91.50;;;;;;5036941;28;20022;-90
2021/06/21 07:49:17;;;;;;;1.05;0.55;;;16.40;91.50;;;;;;5037568;28;20036;-91
2021/06/21 07:51:44;;;;;;;1.33;0.80;;;16.50;91.50;;;;;;5037783;28;20532;-91
2021/06/21 07:54:11;;;;;;;0.80;0.80;;;16.50;91.40;;;;;;5036496;28;20795;-91
2021/06/21 07:56:37;;;;;;;2.25;0.77;;;16.60;91.40;;;;;;5040896;28;20025;-92
2021/06/21 07:59:03;;;;;;;0.70;0.60;;;16.60;91.30;;;;;;5039873;28;20442;-91
2021/06/21 08:01:32;;;;;;;0.70;0.60;;;16.60;91.30;;;;;;5036887;28;20021;-90
2021/06/21 08:03:58;;;;;;;1.27;0.70;;;16.70;91.30;;;;;;5036029;28;20465;-92
2021/06/21 08:06:32;;;;;;;0.77;0.70;;;16.70;91.30;;;;;;5036534;28;20032;-93
2021/06/21 08:08:58;;;;;;;2.97;0.85;;;16.70;91.30;;;;;;5036512;28;20021;-92
2021/06/21 08:11:24;;;;;;;1.08;0.77;;;16.70;91.30;;;;;;5036997;28;20151;-91
2021/06/21 08:13:52;;;;;;;0.88;0.52;;;16.70;91.30;;;;;;5035873;28;20061;-91
2021/06/21 08:16:24;;;;;;;1.40;0.70;;;16.70;91.30;;;;;;5036059;28;20032;-91
2021/06/21 08:18:50;;;;;;;0.98;0.70;;;16.60;91.40;;;;;;5036548;28;20036;-91
2021/06/21 08:21:16;;;;;;;1.33;0.90;;;16.60;91.40;;;;;;5049249;28;20026;-90
2021/06/21 08:23:41;;;;;;;1.45;0.82;;;16.60;91.40;;;;;;5053093;28;20037;-91
2021/06/21 08:26:08;;;;;;;0.75;0.63;;;16.60;91.30;;;;;;5048738;28;20035;-92
2021/06/21 08:28:34;;;;;;;0.68;0.45;;;16.60;91.70;;;;;;5039201;28;20021;-92
2021/06/21 08:31:02;;;;;;;1.15;0.80;;;16.60;91.50;;;;;;5050374;28;20044;-91
2021/06/21 08:33:28;;;;;;;2.25;1.15;;;16.50;91.40;;;;;;5040921;28;20039;-91
2021/06/21 08:35:54;;;;;;;0.75;0.63;;;16.60;91.50;;;;;;5038299;28;20045;-91
2021/06/21 08:38:19;;;;;;;1.65;0.93;;;16.60;91.40;;;;;;5046637;28;20039;-91
2021/06/21 08:40:45;;;;;;;1.20;0.88;;;16.60;91.50;;;;;;5048781;28;20059;-92
2021/06/21 08:43:11;;;;;;;1.00;0.90;;;16.60;91.40;;;;;;5036158;28;20095;-90
2021/06/21 08:45:38;;;;;;;2.17;1.08;;;16.60;91.40;;;;;;5042936;28;20021;-89
2021/06/21 08:48:09;;;;;;;2.28;0.85;;;16.70;91.40;;;;;;5048052;28;20032;-91
2021/06/21 08:50:40;;;;;;;1.33;1.00;;;16.80;91.30;;;;;;5041477;28;20037;-90
2021/06/21 08:53:10;;;;;;;0.77;0.70;;;16.70;91.30;;;;;;5035612;28;20389;-89
2021/06/21 08:55:36;;;;;;;2.03;1.10;;;16.60;91.30;;;;;;5035297;28;20487;-90
2021/06/21 08:58:03;;;;;;;1.67;1.30;;;16.60;91.40;;;;;;5034285;28;20025;-90
2021/06/21 09:00:28;;;;;;;2.15;1.17;;;16.40;91.60;;;;;;5034956;28;20355;-88
2021/06/21 09:02:54;;;;;;;1.35;1.05;;;16.40;91.70;;;;;;5034792;28;20064;-88
2021/06/21 09:05:20;;;;;;;1.10;0.90;;;16.40;91.80;;;;;;5034218;28;20525;-89
2021/06/21 09:07:47;;;;;;;1.60;1.10;;;16.40;91.80;;;;;;5035014;28;20022;-89
2021/06/21 09:10:25;;;;;;;1.33;0.88;;;16.50;91.80;;;;;;5035877;28;20098;-88
2021/06/21 09:13:20;;;;;;;1.20;0.80;;;16.50;91.90;;;;;;5035739;28;20109;-90
2021/06/21 09:15:55;;;;;;;1.15;0.90;;;16.50;91.80;;;;;;5033863;28;20041;-90
2021/06/21 09:18:33;;;;;;;2.00;1.10;;;16.50;91.90;;;;;;5020747;28;20223;-89
2021/06/21 09:21:30;;;;;;;1.20;0.90;;;16.50;91.90;;;;;;5040947;28;20028;-88
2021/06/21 09:23:58;;;;;;;1.17;0.88;;;16.50;91.90;;;;;;5033812;28;20041;-84
2021/06/21 09:26:30;;;;;;;1.20;0.70;;;16.50;91.80;;;;;;5039238;28;20032;-90
2021/06/21 09:28:58;;;;;;;1.13;0.82;;;16.50;91.70;;;;;;5035172;28;20032;-88
2021/06/21 09:31:28;;;;;;;1.40;1.13;;;16.50;91.80;;;;;;5035169;28;20052;-89
2021/06/21 09:34:13;;;;;;;0.88;0.70;;;16.50;91.80;;;;;;5034447;28;20025;-90
2021/06/21 09:36:41;;;;;;;1.67;0.90;;;16.50;91.70;;;;;;5035207;28;20029;-88
2021/06/21 09:39:19;;;;;;;1.35;0.80;;;16.50;91.70;;;;;;5033690;28;20480;-90
2021/06/21 09:42:27;;;;;;;0.95;0.75;;;16.50;91.80;;;;;;5034871;28;20085;-89
2021/06/21 09:45:00;;;;;;;1.55;0.80;;;16.60;91.80;;;;;;5035217;28;20133;-91
2021/06/21 09:47:38;;;;;;;1.30;0.90;;;16.60;91.70;;;;;;5033699;28;20038;-92
2021/06/21 09:50:29;;;;;;;1.20;1.05;;;16.60;91.50;;;;;;5033762;28;20541;-89
2021/06/21 09:52:58;;;;;;;1.35;0.90;;;16.60;91.60;;;;;;5012905;28;20040;-91
2021/06/21 09:55:44;;;;;;;1.02;0.75;;;16.60;91.50;;;;;;5012150;28;20309;-90
2021/06/21 09:58:22;;;;;;;2.17;0.98;;;16.70;91.50;;;;;;4996780;28;20034;-90
2021/06/21 10:01:06;;;;;;;0.98;0.63;;;16.80;91.40;;;;;;4997083;28;20041;-88
2021/06/21 10:03:39;;;;;;;1.15;0.85;;;16.90;91.30;;;;;;5013389;28;20092;-90
2021/06/21 10:06:14;;;;;;;1.08;0.60;;;17.00;91.20;;;;;;5013328;28;20122;-92
2021/06/21 10:08:45;;;;;;;1.75;0.75;;;17.10;91.10;;;;;;5012763;28;20038;-87
2021/06/21 10:11:29;;;;;;;1.48;0.98;;;17.20;91.00;;;;;;5012420;28;20462;-88
2021/06/21 10:14:04;;;;;;;1.25;0.73;;;17.30;91.00;;;;;;4995824;28;20080;-89
2021/06/21 10:16:30;;;;;;;0.77;0.70;;;17.40;90.90;;;;;;5011544;28;20467;-88
2021/06/21 10:18:55;;;;;;;2.88;0.98;;;17.40;90.80;;;;;;5011576;28;20064;-87
2021/06/21 10:21:23;;;;;;;1.40;1.10;;;17.40;90.80;;;;;;5010028;28;20029;-85
2021/06/21 10:23:48;;;;;;;1.42;0.80;;;17.40;90.80;;;;;;5010329;28;20129;-84
2021/06/21 10:26:14;;;;;;;0.82;0.80;;;17.50;90.80;;;;;;5009826;28;20101;-86
2021/06/21 10:28:49;;;;;;;0.85;0.75;;;17.50;90.80;;;;;;5009960;28;20026;-85
2021/06/21 10:31:29;;;;;;;1.55;0.82;;;17.50;90.80;;;;;;5047113;28;20025;-85
2021/06/21 10:34:00;;;;;;;1.02;0.70;;;17.50;90.80;;;;;;5051076;28;20388;-85
2021/06/21 10:36:41;;;;;;;1.48;0.93;;;17.50;90.90;;;;;;5050295;28;20017;-84
2021/06/21 10:39:18;;;;;;;0.50;0.50;;;17.50;90.90;;;;;;5050589;28;20476;-85
2021/06/21 10:42:10;;;;;;;1.10;0.55;;;17.50;90.70;;;;;;5051021;28;20025;-84
2021/06/21 10:44:47;;;;;;;;;;;17.50;90.60;;;;;;5051086;28;20021;-85
2021/06/21 10:47:31;;;;;;;0.85;0.60;;;17.50;90.60;;;;;;5050768;28;19905;-84
2021/06/21 10:50:21;;;;;;;1.33;0.60;;;17.60;90.60;;;;;;5054166;28;20053;-84
2021/06/21 10:52:50;;;;;;;1.67;0.82;;;17.70;90.50;;;;;;5055928;28;20036;-86
2021/06/21 10:58:01;;;;;;;0.98;0.70;;;17.90;90.30;;;;;;5056426;28;20032;-85
2021/06/21 11:00:42;;;;;;;1.35;0.60;;;17.90;90.30;;;;;;5058653;28;20099;-84
2021/06/21 11:03:33;;;;;;;0.80;0.60;;;18.00;90.30;;;;;;5055371;28;20052;-85
2021/06/21 11:06:26;;;;;;;1.33;0.85;;;18.00;90.10;;;;;;5054229;28;20029;-81
2021/06/21 11:08:56;;;;;;;1.33;0.75;;;18.00;90.10;;;;;;5046643;28;20033;-83
2021/06/21 11:11:44;;;;;;;0.82;0.65;;;18.00;90.10;;;;;;5054928;28;20017;-83
2021/06/21 11:14:14;;;;;;;0.77;0.70;;;18.10;90.20;;;;;;5054605;28;20450;-87
2021/06/21 11:16:42;;;;;;;2.08;0.90;;;18.20;90.10;;;;;;5054836;28;20025;-82
2021/06/21 11:19:16;;;;;;;1.20;0.85;;;18.20;89.90;;;;;;5054992;28;20051;-82
2021/06/21 11:21:47;;;;;;;0.73;0.68;;;18.40;89.50;;;;;;5056175;28;20028;-81
2021/06/21 11:24:31;;;;;;;;;;;18.40;89.30;;;;;;5056532;28;20071;-81
2021/06/21 11:27:09;;;;;;;0.80;0.70;;;18.40;89.30;;;;;;5054154;28;19944;-80
2021/06/21 11:29:40;;;;;;;0.52;0.40;;;18.60;88.70;;;;;;5053241;28;20048;-82
2021/06/21 11:32:06;;;;;;;1.08;0.50;;;18.60;88.30;;;;;;5054733;28;20431;-81
2021/06/21 11:34:56;;;;;;;1.00;0.88;;;18.50;88.30;;;;;;5054744;28;20492;-81
2021/06/21 11:37:47;;;;;;;1.50;0.75;;;18.50;88.50;;;;;;5054506;28;20017;-80
2021/06/21 11:40:19;;;;;;;1.10;1.00;;;18.50;88.60;;;;;;5053489;28;20021;-82
2021/06/21 11:42:57;;;;;;;1.20;0.70;;;18.50;88.50;;;;;;5053155;28;20120;-81
2021/06/21 11:45:56;;;;;;;0.90;0.80;;;18.40;88.10;;;;;;5053078;28;20035;-80
2021/06/21 11:48:33;;;;;;;0.77;0.68;;;18.50;88.30;;;;;;5052745;28;20032;-80
2021/06/21 11:51:14;;;;;;;0.70;0.68;;;18.50;88.10;;;;;;5053604;28;20024;-81
2021/06/21 11:53:46;;;;;;;;;;;18.50;88.10;;;;;;5054327;28;20025;-81
2021/06/21 11:56:22;;;;;;;0.57;0.57;;;18.50;88.10;;;;;;5054712;28;20368;-81
2021/06/21 11:58:52;;;;;;;1.20;0.77;;;18.50;88.10;;;;;;5056630;28;20465;-80
2021/06/21 12:01:23;;;;;;;1.17;0.80;;;18.50;88.20;;;;;;5054521;28;20030;-81
2021/06/21 12:03:53;;;;;;;1.70;0.70;;;18.50;88.20;;;;;;5055390;28;20025;-81
2021/06/21 12:06:19;;;;;;;0.73;0.68;;;18.50;88.20;;;;;;5054685;28;20024;-82
2021/06/21 12:08:45;;;;;;;1.20;0.73;;;18.60;88.30;;;;;;5054477;28;20464;-81
2021/06/21 12:11:23;;;;;;;1.55;0.80;;;18.60;87.90;;;;;;5054296;28;20070;-81
2021/06/21 12:14:03;;;;;;;0.80;0.70;;;18.60;87.90;;;;;;5053392;28;20021;-81
2021/06/21 12:16:31;;;;;;;1.48;0.82;;;18.70;87.80;;;;;;5055823;28;20170;-85
2021/06/21 12:18:59;;;;;;;1.05;0.93;;;18.80;87.50;;;;;;5055445;28;20024;-80
2021/06/21 12:21:32;;;;;;;1.15;0.88;;;18.90;87.20;;;;;;5052291;28;20031;-81
2021/06/21 12:24:12;;;;;;;1.13;0.95;;;19.00;86.80;;;;;;5054063;28;20044;-80
2021/06/21 12:26:38;;;;;;;1.08;0.88;;;19.10;86.80;;;;;;5052420;28;20113;-81
2021/06/21 12:29:27;;;;;;;1.17;1.00;;;19.10;86.50;;;;;;5052592;28;20481;-81
2021/06/21 12:32:13;;;;;;;1.25;0.88;;;19.00;86.40;;;;;;5053690;28;20025;-81
2021/06/21 12:34:57;;;;;;;2.22;1.00;;;19.10;86.50;;;;;;5053711;28;20025;-81
2021/06/21 12:37:36;;;;;;;1.27;1.08;;;19.00;86.40;;;;;;5052427;28;20056;-84
2021/06/21 12:40:14;;;;;;;1.17;1.00;;;19.00;86.40;;;;;;5052538;28;20021;-78
2021/06/21 12:42:41;;;;;;;1.38;0.90;;;19.20;86.10;;;;;;5052419;28;20142;-83
2021/06/21 12:45:14;;;;;;;1.52;0.85;;;19.30;85.50;;;;;;5053702;28;20036;-83
2021/06/21 12:47:45;;;;;;;2.55;1.00;;;19.40;85.30;;;;;;5052145;28;20025;-82
2021/06/21 12:50:12;;;;;;;0.80;0.80;;;19.30;85.40;;;;;;5051728;28;20048;-82
2021/06/21 12:52:45;;;;;;;2.35;0.90;;;19.20;85.70;;;;;;5051807;28;20036;-80
2021/06/21 12:55:16;;;;;;;1.33;1.00;;;19.10;86.20;;;;;;5051995;28;20067;-82
2021/06/21 12:58:01;;;;;;;;;;;18.90;86.40;;;;;;5051566;28;20086;-80
2021/06/21 13:00:38;;;;;;;1.42;0.95;;;18.80;86.70;;;;;;5050346;28;19944;-80
2021/06/21 13:03:24;;;;;;;1.13;0.85;;;18.70;86.70;;;;;;5051552;28;20043;-83
2021/06/21 13:05:52;;;;;;;3.13;1.00;;;18.60;86.90;;;;;;5052515;28;20028;-80
2021/06/21 13:08:33;;;;;;;5.03;1.00;;;18.50;87.00;;;;;;5053013;28;20350;-80
2021/06/21 13:11:16;;;;;;;0.80;0.80;;;18.50;86.80;;;;;;5053158;28;20032;-81